Map

Track Data

SID SEASON NUMBER BASIN SUBBASIN NAME ISO_TIME NATURE LAT LON WMO_WIND WMO_PRES WMO_AGENCY TRACK_TYPE DIST2LAND LANDFALL IFLAG USA_AGENCY USA_ATCF_ID USA_LAT USA_LON USA_RECORD USA_STATUS USA_WIND USA_PRES USA_SSHS USA_R34_NE USA_R34_SE USA_R34_SW USA_R34_NW USA_R50_NE USA_R50_SE USA_R50_SW USA_R50_NW USA_R64_NE USA_R64_SE USA_R64_SW USA_R64_NW USA_POCI USA_ROCI USA_RMW USA_EYE TOKYO_LAT TOKYO_LON TOKYO_GRADE TOKYO_WIND TOKYO_PRES TOKYO_R50_DIR TOKYO_R50_LONG TOKYO_R50_SHORT TOKYO_R30_DIR TOKYO_R30_LONG TOKYO_R30_SHORT TOKYO_LAND CMA_LAT CMA_LON CMA_CAT CMA_WIND CMA_PRES HKO_LAT HKO_LON HKO_CAT HKO_WIND HKO_PRES NEWDELHI_LAT NEWDELHI_LON NEWDELHI_GRADE NEWDELHI_WIND NEWDELHI_PRES NEWDELHI_CI NEWDELHI_DP NEWDELHI_POCI REUNION_LAT REUNION_LON REUNION_TYPE REUNION_WIND REUNION_PRES REUNION_TNUM REUNION_CI REUNION_RMW REUNION_R34_NE REUNION_R34_SE REUNION_R34_SW REUNION_R34_NW REUNION_R50_NE REUNION_R50_SE REUNION_R50_SW REUNION_R50_NW REUNION_R64_NE REUNION_R64_SE REUNION_R64_SW REUNION_R64_NW BOM_LAT BOM_LON BOM_TYPE BOM_WIND BOM_PRES BOM_TNUM BOM_CI BOM_RMW BOM_R34_NE BOM_R34_SE BOM_R34_SW BOM_R34_NW BOM_R50_NE BOM_R50_SE BOM_R50_SW BOM_R50_NW BOM_R64_NE BOM_R64_SE BOM_R64_SW BOM_R64_NW BOM_ROCI BOM_POCI BOM_EYE BOM_POS_METHOD BOM_PRES_METHOD NADI_LAT NADI_LON NADI_CAT NADI_WIND NADI_PRES WELLINGTON_LAT WELLINGTON_LON WELLINGTON_WIND WELLINGTON_PRES DS824_LAT DS824_LON DS824_STAGE DS824_WIND DS824_PRES TD9636_LAT TD9636_LON TD9636_STAGE TD9636_WIND TD9636_PRES TD9635_LAT TD9635_LON TD9635_WIND TD9635_PRES TD9635_ROCI NEUMANN_LAT NEUMANN_LON NEUMANN_CLASS NEUMANN_WIND NEUMANN_PRES MLC_LAT MLC_LON MLC_CLASS MLC_WIND MLC_PRES USA_GUST BOM_GUST BOM_GUST_PER REUNION_GUST REUNION_GUST_PER USA_SEAHGT USA_SEARAD_NE USA_SEARAD_SE USA_SEARAD_SW USA_SEARAD_NW STORM_SPEED STORM_DIR
1924238N19089 1924 29 NI BB NOT_NAMED 1924-08-25 00:00:00 TS 19.1000 89.1000 main 279 266 _________O____ -1 19.1000 89.1000 TC 30 3 282
1924238N19089 1924 29 NI BB NOT_NAMED 1924-08-25 03:00:00 TS 19.1334 88.9333 main 266 242 _________PO___ -1 19.1501 88.8500 TC 30 19.1000 89.1000 1 4 282
1924238N19089 1924 29 NI BB NOT_NAMED 1924-08-25 06:00:00 TS 19.1833 88.6970 main 242 224 _________OP___ -1 19.2000 88.6000 TC 30 19.1581 88.8424 1 5 283
1924238N19089 1924 29 NI BB NOT_NAMED 1924-08-25 09:00:00 TS 19.2341 88.4519 main 224 192 _________PP___ -1 19.2500 88.3500 TC 30 19.2129 88.5878 1 5 282
1924238N19089 1924 29 NI BB NOT_NAMED 1924-08-25 12:00:00 TS 19.2806 88.2196 main 192 176 _________OP___ -1 19.3000 88.1000 TC 30 19.2611 88.3393 1 5 281
1924238N19089 1924 29 NI BB NOT_NAMED 1924-08-25 15:00:00 TS 19.3250 87.9712 main 176 145 _________PO___ -1 19.3500 87.8425 TC 30 19.3000 88.1000 1 5 280
1924238N19089 1924 29 NI BB NOT_NAMED 1924-08-25 18:00:00 TS 19.3648 87.7358 main 145 130 _________OP___ -1 19.4000 87.6000 TC 30 19.3295 87.8716 1 4 280
1924238N19089 1924 29 NI BB NOT_NAMED 1924-08-25 21:00:00 TS 19.3986 87.5247 main 130 109 _________PP___ -1 19.4349 87.3999 TC 30 19.3623 87.6496 1 4 283
1924238N19089 1924 29 NI BB NOT_NAMED 1924-08-26 00:00:00 TS 19.4569 87.3139 main 109 85 _________OP___ -1 19.5000 87.2000 TC 30 19.4139 87.4278 1 5 291
1924238N19089 1924 29 NI BB NOT_NAMED 1924-08-26 03:00:00 TS 19.5637 87.0788 main 85 53 _________PO___ -1 19.6275 86.9575 TC 30 19.5000 87.2000 1 5 299
1924238N19089 1924 29 NI BB NOT_NAMED 1924-08-26 06:00:00 TS 19.7115 86.8185 main 53 23 _________OP___ -1 19.8000 86.7000 TC 30 19.6229 86.9370 1 6 303
1924238N19089 1924 29 NI BB NOT_NAMED 1924-08-26 09:00:00 TS 19.8839 86.5526 main 23 0 _________PP___ -1 19.9850 86.4350 TC 30 19.7827 86.6702 1 6 308
1924238N19089 1924 29 NI BB NOT_NAMED 1924-08-26 12:00:00 TS 20.0880 86.3091 main 0 0 _________OP___ -1 20.2000 86.2000 TC 30 19.9761 86.4183 1 6 316
1924238N19089 1924 29 NI BB NOT_NAMED 1924-08-26 15:00:00 TS 20.3175 86.1137 main 0 0 _________PO___ -1 20.4350 86.0274 TC 30 20.2000 86.2000 1 6 326
1924238N19089 1924 29 NI BB NOT_NAMED 1924-08-26 18:00:00 TS 20.5812 85.9574 main 0 0 _________OP___ -1 20.7000 85.9000 TC 30 20.4624 86.0148 1 6 334
1924238N19089 1924 29 NI BB NOT_NAMED 1924-08-26 21:00:00 TS 20.8824 85.8226 main 0 0 _________PP___ -1 21.0150 85.7775 TC 30 20.7498 85.8677 1 6 340
1924238N19089 1924 29 NI BB NOT_NAMED 1924-08-27 00:00:00 TS 21.1687 85.7309 main 0 0 _________OP___ -1 21.3000 85.7000 TC 30 21.0374 85.7617 1 5 346
1924238N19089 1924 29 NI BB NOT_NAMED 1924-08-27 03:00:00 TS 21.3825 85.6887 main 0 0 _________PO___ -1 21.4650 85.6774 TC 30 21.3000 85.7000 1 4 353
1924238N19089 1924 29 NI BB NOT_NAMED 1924-08-27 06:00:00 TS 21.5498 85.6968 main 0 0 _________OP___ -1 21.6000 85.7000 TC 30 21.4996 85.6936 1 4 6
1924238N19089 1924 29 NI BB NOT_NAMED 1924-08-27 09:00:00 TS 21.7325 85.7384 main 0 0 _________PP___ -1 21.7925 85.7499 TC 30 21.6724 85.7269 1 4 12
1924238N19089 1924 29 NI BB NOT_NAMED 1924-08-27 12:00:00 TS 21.9170 85.7859 main 0 0 _________OP___ -1 22.0000 85.8000 TC 30 21.8340 85.7718 1 4 10
1924238N19089 1924 29 NI BB NOT_NAMED 1924-08-27 15:00:00 TS 22.1000 85.8112 main 0 0 _________PO___ -1 22.2000 85.8225 TC 30 22.0000 85.8000 1 4 7
1924238N19089 1924 29 NI BB NOT_NAMED 1924-08-27 18:00:00 TS 22.3002 85.8241 main 0 0 _________OP___ -1 22.4000 85.8000 TC 30 22.2003 85.8482 1 4 2
1924238N19089 1924 29 NI BB NOT_NAMED 1924-08-27 21:00:00 TS 22.4993 85.8157 main 0 0 _________PP___ -1 22.5923 85.7672 TC 30 22.4063 85.8641 1 4 343
1924238N19089 1924 29 NI BB NOT_NAMED 1924-08-28 00:00:00 TS 22.7046 85.6990 main 0 0 _________OP___ -1 22.8000 85.6000 TC 30 22.6092 85.7980 1 6 320
1924238N19089 1924 29 NI BB NOT_NAMED 1924-08-28 03:00:00 TS 22.9362 85.4127 main 0 0 _________PO___ -1 23.0725 85.2254 TC 30 22.8000 85.6000 1 8 303
1924238N19089 1924 29 NI BB NOT_NAMED 1924-08-28 06:00:00 TS 23.1427 84.9582 main 0 0 _________OP___ -1 23.3000 84.7000 TC 30 22.9854 85.2165 1 10 290
1924238N19089 1924 29 NI BB NOT_NAMED 1924-08-28 09:00:00 TS 23.2706 84.4079 main 0 0 _________PP___ -1 23.3876 84.1147 TC 30 23.1536 84.7011 1 11 281
1924238N19089 1924 29 NI BB NOT_NAMED 1924-08-28 12:00:00 TS 23.3474 83.8051 main 0 0 _________OP___ -1 23.4000 83.5000 TC 30 23.2947 84.1101 1 11 277
1924238N19089 1924 29 NI BB NOT_NAMED 1924-08-28 15:00:00 TS 23.3999 83.2212 main 0 0 _________PO___ -1 23.3997 82.9423 TC 30 23.4000 83.5000 1 11 274
1924238N19089 1924 29 NI BB NOT_NAMED 1924-08-28 18:00:00 TS 23.4286 82.6579 main 0 0 _________OP___ -1 23.4000 82.4000 TC 30 23.4573 82.9158 1 11 273
1924238N19089 1924 29 NI BB NOT_NAMED 1924-08-28 21:00:00 TS 23.4617 82.0721 main 0 0 _________PP___ -1 23.4426 81.8126 TC 30 23.4807 82.3316 1 10 274
1924238N19089 1924 29 NI BB NOT_NAMED 1924-08-29 00:00:00 TS 23.4943 81.5408 main 0 0 _________OP___ -1 23.5000 81.3000 TC 30 23.4887 81.7816 1 9 274
1924238N19089 1924 29 NI BB NOT_NAMED 1924-08-29 03:00:00 TS 23.5248 81.1312 main 0 0 _________PO___ -1 23.5497 80.9624 TC 30 23.5000 81.3000 1 7 276
1924238N19089 1924 29 NI BB NOT_NAMED 1924-08-29 06:00:00 TS 23.5688 80.8120 main 0 0 _________OP___ -1 23.6000 80.7000 TC 30 23.5377 80.9240 1 6 279
1924238N19089 1924 29 NI BB NOT_NAMED 1924-08-29 09:00:00 TS 23.6168 80.5087 main 0 0 _________PP___ -1 23.6499 80.4000 TC 30 23.5837 80.6174 1 5 281
1924238N19089 1924 29 NI BB NOT_NAMED 1924-08-29 12:00:00 TS 23.6690 80.2260 main 0 0 _________OP___ -1 23.7000 80.1000 TC 30 23.6380 80.3521 1 5 281
1924238N19089 1924 29 NI BB NOT_NAMED 1924-08-29 15:00:00 TS 23.7212 79.9462 main 0 0 _________PO___ -1 23.7425 79.7924 TC 30 23.7000 80.1000 1 5 282
1924238N19089 1924 29 NI BB NOT_NAMED 1924-08-29 18:00:00 TS 23.7773 79.6830 main 0 0 _________OP___ -1 23.8000 79.5000 TC 30 23.7546 79.8660 1 5 286
1924238N19089 1924 29 NI BB NOT_NAMED 1924-08-29 21:00:00 TS 23.8515 79.4594 main 0 0 _________PP___ -1 23.8846 79.2873 TC 30 23.8184 79.6315 1 5 290
1924238N19089 1924 29 NI BB NOT_NAMED 1924-08-30 00:00:00 TS 23.9490 79.1782 main 0 0 _________OP___ -1 24.0000 79.0000 TC 30 23.8981 79.3564 1 7 289
1924238N19089 1924 29 NI BB NOT_NAMED 1924-08-30 03:00:00 TS 24.0713 78.7513 main 0 0 _________PO___ -1 24.1426 78.5025 TC 30 24.0000 79.0000 1 9 287
1924238N19089 1924 29 NI BB NOT_NAMED 1924-08-30 06:00:00 TS 24.2206 78.2080 main 0 0 _________OP___ -1 24.3000 77.9000 TC 30 24.1411 78.5160 1 11 287
1924238N19089 1924 29 NI AS NOT_NAMED 1924-08-30 09:00:00 TS 24.3790 77.6280 main 0 0 _________PP___ -1 24.4573 77.3075 TC 30 24.3006 77.9484 1 11 286
1924238N19089 1924 29 NI AS NOT_NAMED 1924-08-30 12:00:00 TS 24.5298 77.0158 main 0 0 _________OP___ -1 24.6000 76.7000 TC 30 24.4597 77.3316 1 12 284
1924238N19089 1924 29 NI AS NOT_NAMED 1924-08-30 15:00:00 TS 24.6574 76.3999 main 0 0 _________PO___ -1 24.7148 76.0999 TC 30 24.6000 76.7000 1 11 281
1924238N19089 1924 29 NI AS NOT_NAMED 1924-08-30 18:00:00 TS 24.7475 75.8326 main 0 0 _________OP___ -1 24.8000 75.5000 TC 30 24.7082 76.0821 1 11 279
1924238N19089 1924 29 NI AS NOT_NAMED 1924-08-30 21:00:00 TS 24.8163 75.2478 main 0 0 _________PP___ -1 24.8580 74.9001 TC 30 24.7885 75.4796 1 10 277
1924238N19089 1924 29 NI AS NOT_NAMED 1924-08-31 00:00:00 TS 24.8664 74.6916 main 0 0 _________OP___ -1 24.9000 74.3000 TC 30 24.8496 74.8873 1 9 276
1924238N19089 1924 29 NI AS NOT_NAMED 1924-08-31 03:00:00 NR 24.9000 74.3000 main 0 __________O___ -1 TC 24.9000 74.3000 1 7 275

About IBTrACS Database

This database is a web-friendly format of International Best Track Archive for Climate Stewardship (IBTrACS), a global best track data archive curated by NOAA dating back to 1842.

Updated: 2021-10-08